sensor_id;sensor_type;location;lat;lon;timestamp;P1;durP1;ratioP1;P2;durP2;ratioP2
48403;SDS011;34202;52.536;6.042;2022-10-16T00:02:32;3.80;;;1.60;;
48403;SDS011;34202;52.536;6.042;2022-10-16T00:07:33;2.90;;;1.10;;
48403;SDS011;34202;52.536;6.042;2022-10-16T00:12:33;7.40;;;1.20;;
48403;SDS011;34202;52.536;6.042;2022-10-16T00:17:33;5.30;;;1.40;;
48403;SDS011;34202;52.536;6.042;2022-10-16T00:22:33;11.30;;;1.40;;
48403;SDS011;34202;52.536;6.042;2022-10-16T00:27:34;6.80;;;1.30;;
48403;SDS011;34202;52.536;6.042;2022-10-16T00:32:34;6.70;;;1.60;;
48403;SDS011;34202;52.536;6.042;2022-10-16T00:37:35;6.80;;;1.30;;
48403;SDS011;34202;52.536;6.042;2022-10-16T00:42:35;2.30;;;1.10;;
48403;SDS011;34202;52.536;6.042;2022-10-16T00:47:44;4.00;;;1.20;;
48403;SDS011;34202;52.536;6.042;2022-10-16T00:52:49;3.40;;;1.20;;
48403;SDS011;34202;52.536;6.042;2022-10-16T00:57:51;3.90;;;1.20;;
48403;SDS011;34202;52.536;6.042;2022-10-16T01:02:56;3.70;;;1.30;;
48403;SDS011;34202;52.536;6.042;2022-10-16T01:08:01;3.80;;;1.70;;
48403;SDS011;34202;52.536;6.042;2022-10-16T01:13:14;7.00;;;1.40;;
48403;SDS011;34202;52.536;6.042;2022-10-16T01:23:47;3.40;;;1.70;;
48403;SDS011;34202;52.536;6.042;2022-10-16T01:29:03;6.60;;;1.40;;
48403;SDS011;34202;52.536;6.042;2022-10-16T01:34:08;6.20;;;1.60;;
48403;SDS011;34202;52.536;6.042;2022-10-16T01:39:15;4.80;;;1.20;;
48403;SDS011;34202;52.536;6.042;2022-10-16T01:44:20;2.90;;;1.40;;
48403;SDS011;34202;52.536;6.042;2022-10-16T01:49:26;4.90;;;1.80;;
48403;SDS011;34202;52.536;6.042;2022-10-16T01:54:30;5.90;;;1.50;;
48403;SDS011;34202;52.536;6.042;2022-10-16T01:59:35;4.60;;;1.20;;
48403;SDS011;34202;52.536;6.042;2022-10-16T02:04:44;2.40;;;0.90;;
48403;SDS011;34202;52.536;6.042;2022-10-16T02:09:47;2.30;;;1.00;;
48403;SDS011;34202;52.536;6.042;2022-10-16T02:14:47;3.80;;;1.30;;
48403;SDS011;34202;52.536;6.042;2022-10-16T02:19:48;2.30;;;1.30;;
48403;SDS011;34202;52.536;6.042;2022-10-16T02:24:59;4.10;;;1.20;;
48403;SDS011;34202;52.536;6.042;2022-10-16T02:30:09;2.20;;;1.00;;
48403;SDS011;34202;52.536;6.042;2022-10-16T02:35:18;3.70;;;1.20;;
48403;SDS011;34202;52.536;6.042;2022-10-16T02:40:20;2.40;;;1.30;;
48403;SDS011;34202;52.536;6.042;2022-10-16T02:45:21;3.10;;;1.00;;
48403;SDS011;34202;52.536;6.042;2022-10-16T02:50:23;2.70;;;1.50;;
48403;SDS011;34202;52.536;6.042;2022-10-16T02:55:25;3.20;;;1.20;;
48403;SDS011;34202;52.536;6.042;2022-10-16T03:00:25;6.60;;;1.60;;
48403;SDS011;34202;52.536;6.042;2022-10-16T03:05:25;2.80;;;1.40;;
48403;SDS011;34202;52.536;6.042;2022-10-16T03:10:26;4.50;;;1.50;;
48403;SDS011;34202;52.536;6.042;2022-10-16T03:15:27;1.80;;;1.20;;
48403;SDS011;34202;52.536;6.042;2022-10-16T03:20:28;5.70;;;1.60;;
48403;SDS011;34202;52.536;6.042;2022-10-16T03:25:29;5.70;;;1.90;;
48403;SDS011;34202;52.536;6.042;2022-10-16T03:30:29;3.80;;;2.10;;
48403;SDS011;34202;52.536;6.042;2022-10-16T03:35:29;2.30;;;1.50;;
48403;SDS011;34202;52.536;6.042;2022-10-16T03:40:30;5.10;;;1.90;;
48403;SDS011;34202;52.536;6.042;2022-10-16T03:45:32;6.20;;;1.70;;
48403;SDS011;34202;52.536;6.042;2022-10-16T03:50:32;9.80;;;1.90;;
48403;SDS011;34202;52.536;6.042;2022-10-16T03:55:32;3.50;;;1.50;;
48403;SDS011;34202;52.536;6.042;2022-10-16T04:00:33;4.60;;;1.60;;
48403;SDS011;34202;52.536;6.042;2022-10-16T04:05:34;1.80;;;1.60;;
48403;SDS011;34202;52.536;6.042;2022-10-16T04:10:34;6.80;;;1.50;;
48403;SDS011;34202;52.536;6.042;2022-10-16T04:15:35;3.40;;;2.00;;
48403;SDS011;34202;52.536;6.042;2022-10-16T04:20:35;2.70;;;1.80;;
48403;SDS011;34202;52.536;6.042;2022-10-16T04:25:35;3.20;;;1.80;;
48403;SDS011;34202;52.536;6.042;2022-10-16T04:30:37;4.10;;;2.10;;
48403;SDS011;34202;52.536;6.042;2022-10-16T04:35:39;6.40;;;1.80;;
48403;SDS011;34202;52.536;6.042;2022-10-16T04:40:39;3.00;;;2.60;;
48403;SDS011;34202;52.536;6.042;2022-10-16T04:45:42;3.40;;;1.80;;
48403;SDS011;34202;52.536;6.042;2022-10-16T04:50:42;4.30;;;1.80;;
48403;SDS011;34202;52.536;6.042;2022-10-16T04:55:42;4.60;;;2.00;;
48403;SDS011;34202;52.536;6.042;2022-10-16T05:00:43;4.70;;;1.90;;
48403;SDS011;34202;52.536;6.042;2022-10-16T05:05:44;3.90;;;1.90;;
48403;SDS011;34202;52.536;6.042;2022-10-16T05:10:45;2.30;;;1.50;;
48403;SDS011;34202;52.536;6.042;2022-10-16T05:15:46;3.50;;;1.50;;
48403;SDS011;34202;52.536;6.042;2022-10-16T05:20:48;4.50;;;1.70;;
48403;SDS011;34202;52.536;6.042;2022-10-16T05:25:52;4.50;;;1.70;;
48403;SDS011;34202;52.536;6.042;2022-10-16T05:30:54;6.40;;;1.50;;
48403;SDS011;34202;52.536;6.042;2022-10-16T05:35:54;3.60;;;1.40;;
48403;SDS011;34202;52.536;6.042;2022-10-16T05:40:55;4.60;;;1.60;;
48403;SDS011;34202;52.536;6.042;2022-10-16T05:45:56;1.60;;;1.20;;
48403;SDS011;34202;52.536;6.042;2022-10-16T05:56:11;4.20;;;1.60;;
48403;SDS011;34202;52.536;6.042;2022-10-16T06:01:18;5.00;;;1.40;;
48403;SDS011;34202;52.536;6.042;2022-10-16T06:06:21;2.30;;;1.40;;
48403;SDS011;34202;52.536;6.042;2022-10-16T06:11:27;2.30;;;1.40;;
48403;SDS011;34202;52.536;6.042;2022-10-16T06:16:29;4.30;;;1.20;;
48403;SDS011;34202;52.536;6.042;2022-10-16T06:21:29;3.20;;;1.40;;
48403;SDS011;34202;52.536;6.042;2022-10-16T06:26:30;8.30;;;1.50;;
48403;SDS011;34202;52.536;6.042;2022-10-16T06:31:30;2.20;;;1.10;;
48403;SDS011;34202;52.536;6.042;2022-10-16T06:36:33;4.30;;;1.10;;
48403;SDS011;34202;52.536;6.042;2022-10-16T06:41:33;8.70;;;2.10;;
48403;SDS011;34202;52.536;6.042;2022-10-16T06:46:34;6.20;;;2.00;;
48403;SDS011;34202;52.536;6.042;2022-10-16T06:51:34;2.90;;;1.50;;
48403;SDS011;34202;52.536;6.042;2022-10-16T06:56:36;6.80;;;1.50;;
48403;SDS011;34202;52.536;6.042;2022-10-16T07:01:37;2.60;;;1.50;;
48403;SDS011;34202;52.536;6.042;2022-10-16T07:06:38;4.50;;;1.10;;
48403;SDS011;34202;52.536;6.042;2022-10-16T07:11:39;1.90;;;0.90;;
48403;SDS011;34202;52.536;6.042;2022-10-16T07:16:40;4.80;;;2.00;;
48403;SDS011;34202;52.536;6.042;2022-10-16T07:21:40;3.00;;;0.90;;
48403;SDS011;34202;52.536;6.042;2022-10-16T07:26:42;4.80;;;1.20;;
48403;SDS011;34202;52.536;6.042;2022-10-16T07:31:43;4.50;;;0.80;;
48403;SDS011;34202;52.536;6.042;2022-10-16T07:36:44;3.70;;;1.60;;
48403;SDS011;34202;52.536;6.042;2022-10-16T07:41:44;5.50;;;1.60;;
48403;SDS011;34202;52.536;6.042;2022-10-16T07:46:44;6.90;;;2.10;;
48403;SDS011;34202;52.536;6.042;2022-10-16T07:51:45;5.40;;;2.20;;
48403;SDS011;34202;52.536;6.042;2022-10-16T07:56:45;4.10;;;2.00;;
48403;SDS011;34202;52.536;6.042;2022-10-16T08:01:45;6.50;;;2.40;;
48403;SDS011;34202;52.536;6.042;2022-10-16T08:06:45;7.00;;;2.30;;
48403;SDS011;34202;52.536;6.042;2022-10-16T08:11:46;6.00;;;1.90;;
48403;SDS011;34202;52.536;6.042;2022-10-16T08:16:46;4.70;;;2.00;;
48403;SDS011;34202;52.536;6.042;2022-10-16T08:21:47;5.10;;;2.60;;
48403;SDS011;34202;52.536;6.042;2022-10-16T08:26:48;5.90;;;1.60;;
48403;SDS011;34202;52.536;6.042;2022-10-16T08:31:48;4.90;;;1.50;;
48403;SDS011;34202;52.536;6.042;2022-10-16T08:36:48;4.20;;;1.60;;
48403;SDS011;34202;52.536;6.042;2022-10-16T08:41:56;4.50;;;1.70;;
48403;SDS011;34202;52.536;6.042;2022-10-16T08:47:15;8.90;;;1.70;;
48403;SDS011;34202;52.536;6.042;2022-10-16T08:52:19;8.10;;;2.10;;
48403;SDS011;34202;52.536;6.042;2022-10-16T08:57:20;4.20;;;1.70;;
48403;SDS011;34202;52.536;6.042;2022-10-16T09:13:17;4.50;;;1.40;;
48403;SDS011;34202;52.536;6.042;2022-10-16T09:18:32;6.20;;;1.20;;
48403;SDS011;34202;52.536;6.042;2022-10-16T09:23:39;7.30;;;2.10;;
48403;SDS011;34202;52.536;6.042;2022-10-16T09:28:39;4.70;;;1.40;;
48403;SDS011;34202;52.536;6.042;2022-10-16T09:33:40;5.20;;;1.30;;
48403;SDS011;34202;52.536;6.042;2022-10-16T09:38:42;8.50;;;2.10;;
48403;SDS011;34202;52.536;6.042;2022-10-16T09:43:52;10.00;;;2.00;;
48403;SDS011;34202;52.536;6.042;2022-10-16T09:48:59;11.30;;;1.90;;
48403;SDS011;34202;52.536;6.042;2022-10-16T09:59:13;13.30;;;1.60;;
48403;SDS011;34202;52.536;6.042;2022-10-16T10:04:16;7.60;;;2.20;;
48403;SDS011;34202;52.536;6.042;2022-10-16T10:14:24;9.00;;;1.50;;
48403;SDS011;34202;52.536;6.042;2022-10-16T10:24:28;5.80;;;2.00;;
48403;SDS011;34202;52.536;6.042;2022-10-16T10:46:03;6.20;;;1.70;;
48403;SDS011;34202;52.536;6.042;2022-10-16T10:51:13;11.40;;;1.90;;
48403;SDS011;34202;52.536;6.042;2022-10-16T11:01:45;6.20;;;1.50;;
48403;SDS011;34202;52.536;6.042;2022-10-16T11:06:50;9.90;;;2.10;;
48403;SDS011;34202;52.536;6.042;2022-10-16T11:12:04;7.70;;;1.90;;
48403;SDS011;34202;52.536;6.042;2022-10-16T11:17:13;8.10;;;2.40;;
48403;SDS011;34202;52.536;6.042;2022-10-16T11:22:38;7.80;;;1.70;;
48403;SDS011;34202;52.536;6.042;2022-10-16T11:33:04;4.80;;;1.50;;
48403;SDS011;34202;52.536;6.042;2022-10-16T11:49:27;11.80;;;1.40;;
48403;SDS011;34202;52.536;6.042;2022-10-16T11:54:37;12.40;;;1.90;;
48403;SDS011;34202;52.536;6.042;2022-10-16T11:59:52;6.80;;;1.60;;
48403;SDS011;34202;52.536;6.042;2022-10-16T12:05:06;7.00;;;1.40;;
48403;SDS011;34202;52.536;6.042;2022-10-16T12:10:20;14.10;;;2.60;;
48403;SDS011;34202;52.536;6.042;2022-10-16T12:15:26;4.80;;;1.20;;
48403;SDS011;34202;52.536;6.042;2022-10-16T12:20:33;6.60;;;1.40;;
48403;SDS011;34202;52.536;6.042;2022-10-16T12:25:36;8.40;;;1.40;;
48403;SDS011;34202;52.536;6.042;2022-10-16T12:30:56;6.70;;;1.50;;
48403;SDS011;34202;52.536;6.042;2022-10-16T12:36:03;7.40;;;1.60;;
48403;SDS011;34202;52.536;6.042;2022-10-16T12:41:11;11.30;;;3.70;;
48403;SDS011;34202;52.536;6.042;2022-10-16T12:56:36;4.60;;;1.20;;
48403;SDS011;34202;52.536;6.042;2022-10-16T13:02:14;8.50;;;1.20;;
48403;SDS011;34202;52.536;6.042;2022-10-16T13:18:20;8.90;;;1.40;;
48403;SDS011;34202;52.536;6.042;2022-10-16T13:23:26;7.20;;;1.40;;
48403;SDS011;34202;52.536;6.042;2022-10-16T13:28:35;14.30;;;2.40;;
48403;SDS011;34202;52.536;6.042;2022-10-16T13:33:39;9.20;;;2.60;;
48403;SDS011;34202;52.536;6.042;2022-10-16T13:38:42;7.70;;;1.30;;
48403;SDS011;34202;52.536;6.042;2022-10-16T13:48:59;9.20;;;1.80;;
48403;SDS011;34202;52.536;6.042;2022-10-16T13:54:01;8.30;;;1.70;;
48403;SDS011;34202;52.536;6.042;2022-10-16T13:59:22;5.80;;;1.30;;
48403;SDS011;34202;52.536;6.042;2022-10-16T14:04:23;3.90;;;1.30;;
48403;SDS011;34202;52.536;6.042;2022-10-16T14:09:27;8.80;;;1.40;;
48403;SDS011;34202;52.536;6.042;2022-10-16T14:14:33;11.00;;;1.30;;
48403;SDS011;34202;52.536;6.042;2022-10-16T14:19:39;7.40;;;1.80;;
48403;SDS011;34202;52.536;6.042;2022-10-16T14:24:39;8.00;;;1.50;;
48403;SDS011;34202;52.536;6.042;2022-10-16T14:29:39;11.00;;;1.50;;
48403;SDS011;34202;52.536;6.042;2022-10-16T14:34:40;8.40;;;1.50;;
48403;SDS011;34202;52.536;6.042;2022-10-16T14:39:40;12.40;;;2.90;;
48403;SDS011;34202;52.536;6.042;2022-10-16T14:44:40;6.70;;;1.80;;
48403;SDS011;34202;52.536;6.042;2022-10-16T14:49:41;6.40;;;1.30;;
48403;SDS011;34202;52.536;6.042;2022-10-16T14:54:42;6.20;;;1.90;;
48403;SDS011;34202;52.536;6.042;2022-10-16T14:59:42;12.40;;;1.90;;
48403;SDS011;34202;52.536;6.042;2022-10-16T15:04:46;5.00;;;1.20;;
48403;SDS011;34202;52.536;6.042;2022-10-16T15:09:47;6.90;;;1.60;;
48403;SDS011;34202;52.536;6.042;2022-10-16T15:14:47;7.60;;;1.40;;
48403;SDS011;34202;52.536;6.042;2022-10-16T15:19:48;5.50;;;1.40;;
48403;SDS011;34202;52.536;6.042;2022-10-16T15:24:48;9.80;;;2.00;;
48403;SDS011;34202;52.536;6.042;2022-10-16T15:29:48;8.10;;;1.60;;
48403;SDS011;34202;52.536;6.042;2022-10-16T15:34:48;7.70;;;1.40;;
48403;SDS011;34202;52.536;6.042;2022-10-16T15:39:50;10.80;;;1.80;;
48403;SDS011;34202;52.536;6.042;2022-10-16T15:44:50;9.60;;;1.60;;
48403;SDS011;34202;52.536;6.042;2022-10-16T15:49:50;9.00;;;1.90;;
48403;SDS011;34202;52.536;6.042;2022-10-16T15:54:51;7.30;;;1.90;;
48403;SDS011;34202;52.536;6.042;2022-10-16T15:59:51;5.80;;;1.30;;
48403;SDS011;34202;52.536;6.042;2022-10-16T16:04:51;5.50;;;1.30;;
48403;SDS011;34202;52.536;6.042;2022-10-16T16:09:52;8.70;;;2.00;;
48403;SDS011;34202;52.536;6.042;2022-10-16T16:14:52;10.60;;;2.30;;
48403;SDS011;34202;52.536;6.042;2022-10-16T16:19:52;5.50;;;1.90;;
48403;SDS011;34202;52.536;6.042;2022-10-16T16:24:53;7.30;;;1.70;;
48403;SDS011;34202;52.536;6.042;2022-10-16T16:29:53;8.00;;;2.40;;
48403;SDS011;34202;52.536;6.042;2022-10-16T16:34:55;10.00;;;1.50;;
48403;SDS011;34202;52.536;6.042;2022-10-16T16:39:55;6.50;;;1.70;;
48403;SDS011;34202;52.536;6.042;2022-10-16T16:44:58;9.20;;;2.10;;
48403;SDS011;34202;52.536;6.042;2022-10-16T16:49:59;8.60;;;1.70;;
48403;SDS011;34202;52.536;6.042;2022-10-16T16:54:59;7.40;;;1.70;;
48403;SDS011;34202;52.536;6.042;2022-10-16T16:59:59;6.80;;;1.80;;
48403;SDS011;34202;52.536;6.042;2022-10-16T17:05:00;7.80;;;1.80;;
48403;SDS011;34202;52.536;6.042;2022-10-16T17:10:01;6.50;;;2.10;;
48403;SDS011;34202;52.536;6.042;2022-10-16T17:15:02;8.40;;;3.00;;
48403;SDS011;34202;52.536;6.042;2022-10-16T17:20:02;10.90;;;3.20;;
48403;SDS011;34202;52.536;6.042;2022-10-16T17:25:03;11.00;;;3.30;;
48403;SDS011;34202;52.536;6.042;2022-10-16T17:30:04;10.30;;;3.50;;
48403;SDS011;34202;52.536;6.042;2022-10-16T17:35:05;12.00;;;3.60;;
48403;SDS011;34202;52.536;6.042;2022-10-16T17:40:05;9.80;;;3.90;;
48403;SDS011;34202;52.536;6.042;2022-10-16T17:45:06;9.10;;;3.50;;
48403;SDS011;34202;52.536;6.042;2022-10-16T17:50:07;9.80;;;3.90;;
48403;SDS011;34202;52.536;6.042;2022-10-16T17:55:08;8.30;;;3.50;;
48403;SDS011;34202;52.536;6.042;2022-10-16T18:00:08;10.70;;;3.80;;
48403;SDS011;34202;52.536;6.042;2022-10-16T18:05:09;13.10;;;4.10;;
48403;SDS011;34202;52.536;6.042;2022-10-16T18:10:10;10.50;;;4.60;;
48403;SDS011;34202;52.536;6.042;2022-10-16T18:15:11;16.80;;;4.90;;
48403;SDS011;34202;52.536;6.042;2022-10-16T18:20:11;16.80;;;5.80;;
48403;SDS011;34202;52.536;6.042;2022-10-16T18:25:11;11.40;;;4.00;;
48403;SDS011;34202;52.536;6.042;2022-10-16T18:30:11;10.00;;;3.70;;
48403;SDS011;34202;52.536;6.042;2022-10-16T18:35:12;15.00;;;6.00;;
48403;SDS011;34202;52.536;6.042;2022-10-16T18:40:13;14.80;;;3.90;;
48403;SDS011;34202;52.536;6.042;2022-10-16T18:45:13;12.80;;;4.10;;
48403;SDS011;34202;52.536;6.042;2022-10-16T18:50:13;13.40;;;3.80;;
48403;SDS011;34202;52.536;6.042;2022-10-16T18:55:16;10.80;;;3.50;;
48403;SDS011;34202;52.536;6.042;2022-10-16T19:00:17;12.90;;;4.30;;
48403;SDS011;34202;52.536;6.042;2022-10-16T19:05:17;17.50;;;5.50;;
48403;SDS011;34202;52.536;6.042;2022-10-16T19:10:18;14.50;;;5.80;;
48403;SDS011;34202;52.536;6.042;2022-10-16T19:15:18;17.30;;;5.60;;
48403;SDS011;34202;52.536;6.042;2022-10-16T19:20:21;12.80;;;5.70;;
48403;SDS011;34202;52.536;6.042;2022-10-16T19:25:21;12.10;;;5.40;;
48403;SDS011;34202;52.536;6.042;2022-10-16T19:30:22;14.60;;;6.80;;
48403;SDS011;34202;52.536;6.042;2022-10-16T19:35:24;14.00;;;4.90;;
48403;SDS011;34202;52.536;6.042;2022-10-16T19:40:25;11.60;;;4.50;;
48403;SDS011;34202;52.536;6.042;2022-10-16T19:45:26;10.60;;;4.20;;
48403;SDS011;34202;52.536;6.042;2022-10-16T19:50:27;10.60;;;3.80;;
48403;SDS011;34202;52.536;6.042;2022-10-16T19:55:29;17.30;;;4.20;;
48403;SDS011;34202;52.536;6.042;2022-10-16T20:00:30;8.00;;;3.50;;
48403;SDS011;34202;52.536;6.042;2022-10-16T20:05:30;11.40;;;4.20;;
48403;SDS011;34202;52.536;6.042;2022-10-16T20:10:31;8.70;;;3.40;;
48403;SDS011;34202;52.536;6.042;2022-10-16T20:15:31;13.40;;;3.90;;
48403;SDS011;34202;52.536;6.042;2022-10-16T20:20:35;7.80;;;2.90;;
48403;SDS011;34202;52.536;6.042;2022-10-16T20:25:37;11.10;;;3.50;;
48403;SDS011;34202;52.536;6.042;2022-10-16T20:30:40;9.60;;;3.00;;
48403;SDS011;34202;52.536;6.042;2022-10-16T20:35:43;9.40;;;3.10;;
48403;SDS011;34202;52.536;6.042;2022-10-16T20:40:46;7.00;;;2.70;;
48403;SDS011;34202;52.536;6.042;2022-10-16T20:45:47;12.30;;;3.30;;
48403;SDS011;34202;52.536;6.042;2022-10-16T20:50:58;9.90;;;3.20;;
48403;SDS011;34202;52.536;6.042;2022-10-16T20:55:59;13.80;;;3.30;;
48403;SDS011;34202;52.536;6.042;2022-10-16T21:01:04;11.80;;;2.90;;
48403;SDS011;34202;52.536;6.042;2022-10-16T21:06:08;9.80;;;3.20;;
48403;SDS011;34202;52.536;6.042;2022-10-16T21:11:10;11.10;;;3.60;;
48403;SDS011;34202;52.536;6.042;2022-10-16T21:16:13;8.20;;;2.60;;
48403;SDS011;34202;52.536;6.042;2022-10-16T21:21:35;8.70;;;2.50;;
48403;SDS011;34202;52.536;6.042;2022-10-16T21:26:36;7.20;;;2.60;;
48403;SDS011;34202;52.536;6.042;2022-10-16T21:31:37;8.40;;;2.70;;
48403;SDS011;34202;52.536;6.042;2022-10-16T21:36:38;8.90;;;2.80;;
48403;SDS011;34202;52.536;6.042;2022-10-16T21:41:40;10.20;;;3.00;;
48403;SDS011;34202;52.536;6.042;2022-10-16T21:46:42;6.70;;;3.10;;
48403;SDS011;34202;52.536;6.042;2022-10-16T21:51:44;7.70;;;3.10;;
48403;SDS011;34202;52.536;6.042;2022-10-16T21:56:47;8.50;;;2.90;;
48403;SDS011;34202;52.536;6.042;2022-10-16T22:01:47;7.70;;;2.80;;
48403;SDS011;34202;52.536;6.042;2022-10-16T22:06:48;6.00;;;2.50;;
48403;SDS011;34202;52.536;6.042;2022-10-16T22:11:48;6.20;;;3.10;;
48403;SDS011;34202;52.536;6.042;2022-10-16T22:16:49;12.80;;;3.50;;
48403;SDS011;34202;52.536;6.042;2022-10-16T22:21:52;6.10;;;3.00;;
48403;SDS011;34202;52.536;6.042;2022-10-16T22:26:56;7.50;;;3.60;;
48403;SDS011;34202;52.536;6.042;2022-10-16T22:31:56;6.60;;;3.10;;
48403;SDS011;34202;52.536;6.042;2022-10-16T22:36:56;9.60;;;3.20;;
48403;SDS011;34202;52.536;6.042;2022-10-16T22:41:57;14.60;;;3.80;;
48403;SDS011;34202;52.536;6.042;2022-10-16T22:46:57;5.50;;;2.80;;
48403;SDS011;34202;52.536;6.042;2022-10-16T22:51:57;12.10;;;5.10;;
48403;SDS011;34202;52.536;6.042;2022-10-16T22:56:57;9.50;;;3.90;;
48403;SDS011;34202;52.536;6.042;2022-10-16T23:01:58;6.80;;;3.70;;
48403;SDS011;34202;52.536;6.042;2022-10-16T23:06:58;7.00;;;3.50;;
48403;SDS011;34202;52.536;6.042;2022-10-16T23:11:59;11.00;;;3.80;;
48403;SDS011;34202;52.536;6.042;2022-10-16T23:16:59;9.50;;;4.20;;
48403;SDS011;34202;52.536;6.042;2022-10-16T23:21:59;7.90;;;3.80;;
48403;SDS011;34202;52.536;6.042;2022-10-16T23:27:00;8.90;;;3.90;;
48403;SDS011;34202;52.536;6.042;2022-10-16T23:32:00;11.20;;;4.10;;
48403;SDS011;34202;52.536;6.042;2022-10-16T23:37:00;5.50;;;3.10;;
48403;SDS011;34202;52.536;6.042;2022-10-16T23:42:02;10.20;;;4.40;;
48403;SDS011;34202;52.536;6.042;2022-10-16T23:47:03;9.70;;;3.50;;
48403;SDS011;34202;52.536;6.042;2022-10-16T23:52:03;10.60;;;4.50;;
48403;SDS011;34202;52.536;6.042;2022-10-16T23:57:03;12.60;;;4.60;;
